createdAt,value
2018-02-11T00:00:42.535Z,82.40
2018-02-11T00:03:10.039Z,83.00
2018-02-11T00:05:37.580Z,83.50
2018-02-11T00:08:05.227Z,82.80
2018-02-11T00:10:32.772Z,83.40
2018-02-11T00:13:00.275Z,83.50
2018-02-11T00:15:27.808Z,83.00
2018-02-11T00:17:55.315Z,83.00
2018-02-11T00:20:22.851Z,83.50
2018-02-11T00:22:50.364Z,83.10
2018-02-11T00:25:17.960Z,83.10
2018-02-11T00:27:45.467Z,83.00
2018-02-11T00:30:13.024Z,82.50
2018-02-11T00:32:41.303Z,82.40
2018-02-11T00:35:08.851Z,82.40
2018-02-11T00:37:42.209Z,82.90
2018-02-11T00:40:09.750Z,82.90
2018-02-11T00:42:37.269Z,82.60
2018-02-11T00:45:04.891Z,82.20
2018-02-11T00:47:32.451Z,82.90
2018-02-11T00:49:59.998Z,82.50
2018-02-11T00:52:27.519Z,82.90
2018-02-11T00:54:55.065Z,83.10
2018-02-11T00:57:22.588Z,83.30
2018-02-11T00:59:50.124Z,84.00
2018-02-11T01:02:17.638Z,85.20
2018-02-11T01:04:45.175Z,86.90
2018-02-11T01:07:12.684Z,89.00
2018-02-11T01:09:40.984Z,91.50
2018-02-11T01:12:08.487Z,91.50
2018-02-11T01:14:36.036Z,92.20
2018-02-11T01:17:03.576Z,93.30
2018-02-11T01:19:31.127Z,93.70
2018-02-11T01:21:58.643Z,94.60
2018-02-11T01:24:26.951Z,95.30
2018-02-11T01:26:54.453Z,95.30
2018-02-11T01:29:22.003Z,95.50
2018-02-11T01:31:50.325Z,95.80
2018-02-11T01:34:17.863Z,96.30
2018-02-11T01:36:45.405Z,96.70
2018-02-11T01:39:13.716Z,96.90
2018-02-11T01:41:41.230Z,96.80
2018-02-11T01:44:08.776Z,97.10
2018-02-11T01:46:36.299Z,97.10
2018-02-11T01:49:03.840Z,96.80
2018-02-11T01:51:31.346Z,97.10
2018-02-11T01:53:58.895Z,96.70
2018-02-11T01:56:26.419Z,97.00
2018-02-11T01:58:54.021Z,96.80
2018-02-11T02:01:21.587Z,96.70
2018-02-11T02:03:49.132Z,97.10
2018-02-11T02:09:07.263Z,96.80
2018-02-11T02:11:34.791Z,97.00
2018-02-11T02:14:02.366Z,97.10
2018-02-11T02:16:29.871Z,97.30
2018-02-11T02:18:57.385Z,97.20
2018-02-11T02:21:24.956Z,97.10
2018-02-11T02:23:52.467Z,97.40
2018-02-11T02:26:20.004Z,97.40
2018-02-11T02:28:48.304Z,97.90
2018-02-11T02:31:16.578Z,97.90
2018-02-11T02:33:44.883Z,98.20
2018-02-11T02:36:12.430Z,98.20
2018-02-11T02:38:40.003Z,97.90
2018-02-11T02:41:07.524Z,98.10
2018-02-11T02:43:35.068Z,98.30
2018-02-11T02:46:02.583Z,98.60
2018-02-11T02:48:30.153Z,98.50
2018-02-11T02:50:57.664Z,98.40
2018-02-11T02:53:25.212Z,98.10
2018-02-11T02:55:52.732Z,98.30
2018-02-11T02:58:21.046Z,98.50
2018-02-11T03:00:48.567Z,98.50
2018-02-11T03:03:16.120Z,98.60
2018-02-11T03:05:43.627Z,98.60
2018-02-11T03:08:11.932Z,98.60
2018-02-11T03:10:40.208Z,97.90
2018-02-11T03:13:08.520Z,97.80
2018-02-11T03:15:36.025Z,97.80
2018-02-11T03:18:03.576Z,98.20
2018-02-11T03:20:31.126Z,98.20
2018-02-11T03:22:58.663Z,98.30
2018-02-11T03:25:26.171Z,98.20
2018-02-11T03:27:53.716Z,98.20
2018-02-11T03:30:21.239Z,97.80
2018-02-11T03:32:48.800Z,97.40
2018-02-11T03:35:16.320Z,97.60
2018-02-11T03:37:43.880Z,97.40
2018-02-11T03:40:11.403Z,97.40
2018-02-11T03:42:38.954Z,98.00
2018-02-11T03:45:07.231Z,97.30
2018-02-11T03:47:34.763Z,97.30
2018-02-11T03:50:02.276Z,96.90
2018-02-11T03:52:29.834Z,97.00
2018-02-11T03:54:57.336Z,97.30
2018-02-11T03:57:25.642Z,97.20
2018-02-11T03:59:53.932Z,97.50
2018-02-11T04:02:21.481Z,97.50
2018-02-11T04:04:49.000Z,97.00
2018-02-11T04:07:16.542Z,96.90
2018-02-11T04:09:44.830Z,97.40
2018-02-11T04:12:12.433Z,97.40
2018-02-11T04:14:39.930Z,97.70
2018-02-11T04:17:07.526Z,97.80
2018-02-11T04:19:35.023Z,97.80
2018-02-11T04:22:02.570Z,98.00
2018-02-11T04:24:30.085Z,98.20
2018-02-11T04:26:57.632Z,98.20
2018-02-11T04:29:25.968Z,98.40
2018-02-11T04:31:53.474Z,98.40
2018-02-11T04:34:21.027Z,98.10
2018-02-11T04:36:48.545Z,97.90
2018-02-11T04:39:16.144Z,98.20
2018-02-11T04:41:43.647Z,98.30
2018-02-11T04:44:11.178Z,98.30
2018-02-11T04:46:38.681Z,98.10
2018-02-11T04:49:06.217Z,98.60
2018-02-11T04:51:33.730Z,98.40
2018-02-11T04:54:01.268Z,98.50
2018-02-11T04:56:28.777Z,98.60
2018-02-11T04:58:56.389Z,98.60
2018-02-11T05:01:23.904Z,98.50
2018-02-11T05:03:51.449Z,98.30
2018-02-11T05:06:18.959Z,98.50
2018-02-11T05:08:46.509Z,98.60
2018-02-11T05:11:14.017Z,98.20
2018-02-11T05:13:42.352Z,98.40
2018-02-11T05:16:09.876Z,98.40
2018-02-11T05:18:37.426Z,98.30
2018-02-11T05:21:04.926Z,98.60
2018-02-11T05:23:32.473Z,98.50
2018-02-11T05:25:59.987Z,97.50
2018-02-11T05:28:28.337Z,97.30
2018-02-11T05:30:55.854Z,97.30
2018-02-11T05:33:24.155Z,97.60
2018-02-11T05:35:52.428Z,97.50
2018-02-11T05:38:20.738Z,98.10
2018-02-11T05:40:48.336Z,98.10
2018-02-11T05:43:15.881Z,98.40
2018-02-11T05:45:43.405Z,98.10
2018-02-11T05:48:10.951Z,97.80
2018-02-11T05:50:38.472Z,97.90
2018-02-11T05:53:06.016Z,97.10
2018-02-11T05:55:33.559Z,96.90
2018-02-11T05:58:01.099Z,95.60
2018-02-11T06:00:29.383Z,95.30
2018-02-11T06:02:56.919Z,95.20
2018-02-11T06:05:24.425Z,95.50
2018-02-11T06:07:52.728Z,95.90
2018-02-11T06:10:20.244Z,95.90
2018-02-11T06:12:47.779Z,96.40
2018-02-11T06:15:15.331Z,96.30
2018-02-11T06:17:43.607Z,95.90
2018-02-11T06:20:11.191Z,95.90
2018-02-11T06:22:38.711Z,95.70
2018-02-11T06:25:06.250Z,95.50
2018-02-11T06:27:33.760Z,95.60
2018-02-11T06:30:01.308Z,96.20
2018-02-11T06:32:28.820Z,96.30
2018-02-11T06:34:56.359Z,95.80
2018-02-11T06:37:23.869Z,96.00
2018-02-11T06:39:51.481Z,95.90
2018-02-11T06:42:18.995Z,96.20
2018-02-11T06:44:47.295Z,96.80
2018-02-11T06:47:14.807Z,96.50
2018-02-11T06:49:43.112Z,95.70
2018-02-11T06:52:10.634Z,95.70
2018-02-11T06:54:38.186Z,95.60
2018-02-11T06:57:05.693Z,94.40
2018-02-11T06:59:33.226Z,94.00
2018-02-11T07:02:00.732Z,93.30
2018-02-11T07:04:28.275Z,93.20
2018-02-11T07:06:55.778Z,93.10
2018-02-11T07:09:23.328Z,93.30
2018-02-11T07:11:50.836Z,92.20
2018-02-11T07:14:19.144Z,92.30
2018-02-11T07:16:47.426Z,92.20
2018-02-11T07:19:15.737Z,92.30
2018-02-11T07:21:43.263Z,92.20
2018-02-11T07:24:10.811Z,92.00
2018-02-11T07:26:38.317Z,91.90
2018-02-11T07:29:05.862Z,92.20
2018-02-11T07:31:33.372Z,91.60
2018-02-11T07:34:01.676Z,91.10
2018-02-11T07:36:29.187Z,91.20
2018-02-11T07:38:56.721Z,91.30
2018-02-11T07:41:24.227Z,91.00
2018-02-11T07:43:51.777Z,90.40
2018-02-11T07:46:19.282Z,90.50
2018-02-11T07:48:46.833Z,90.80
2018-02-11T07:51:14.343Z,91.20
2018-02-11T07:53:41.907Z,91.10
2018-02-11T07:56:09.425Z,91.10
2018-02-11T07:58:36.970Z,90.20
2018-02-11T08:01:05.249Z,75.50
2018-02-11T08:03:32.791Z,75.50
2018-02-11T08:06:00.295Z,69.40
2018-02-11T08:08:27.839Z,64.60
2018-02-11T08:10:55.420Z,60.00
2018-02-11T08:13:22.961Z,66.00
2018-02-11T08:15:50.488Z,71.00
2018-02-11T08:18:18.031Z,76.40
2018-02-11T08:20:45.551Z,79.80
2018-02-11T08:23:13.902Z,84.40
2018-02-11T08:25:41.484Z,84.30
2018-02-11T08:28:09.024Z,85.50
2018-02-11T08:30:36.527Z,86.80
2018-02-11T08:33:04.072Z,86.70
2018-02-11T08:35:31.585Z,88.50
2018-02-11T08:37:59.925Z,90.00
2018-02-11T08:40:27.434Z,90.00
2018-02-11T08:42:54.979Z,90.00
2018-02-11T08:45:22.483Z,89.80
2018-02-11T08:47:50.065Z,90.30
2018-02-11T08:50:18.344Z,90.30
2018-02-11T08:52:45.890Z,90.30
2018-02-11T08:55:13.409Z,90.30
2018-02-11T08:57:40.952Z,90.30
2018-02-11T09:00:08.476Z,89.60
2018-02-11T09:02:36.015Z,89.40
2018-02-11T09:05:03.557Z,87.70
2018-02-11T09:07:31.072Z,88.30
2018-02-11T09:09:58.621Z,87.90
2018-02-11T09:12:26.123Z,88.00
2018-02-11T09:14:53.660Z,89.40
2018-02-11T09:17:21.201Z,89.70
2018-02-11T09:19:48.750Z,90.00
2018-02-11T09:22:16.286Z,90.20
2018-02-11T09:24:43.824Z,91.00
2018-02-11T09:27:11.349Z,90.80
2018-02-11T09:29:39.659Z,91.80
2018-02-11T09:32:07.175Z,91.80
2018-02-11T09:34:34.719Z,91.50
2018-02-11T09:37:02.290Z,92.30
2018-02-11T09:39:29.811Z,91.60
2018-02-11T09:41:57.320Z,92.40
2018-02-11T09:44:24.877Z,92.60
2018-02-11T09:46:52.387Z,92.70
2018-02-11T09:49:19.934Z,92.60
2018-02-11T09:51:47.443Z,93.10
2018-02-11T09:54:14.991Z,93.20
2018-02-11T09:56:42.495Z,93.40
2018-02-11T09:59:10.035Z,93.00
2018-02-11T10:01:37.566Z,93.40
2018-02-11T10:04:05.108Z,93.40
2018-02-11T10:06:32.622Z,93.30
2018-02-11T10:09:00.170Z,93.30
2018-02-11T10:11:28.459Z,94.30
2018-02-11T10:13:56.023Z,93.90
2018-02-11T10:16:23.545Z,93.30
2018-02-11T10:18:51.142Z,92.80
2018-02-11T10:21:18.699Z,92.10
2018-02-11T10:23:46.242Z,92.10
2018-02-11T10:26:13.759Z,91.70
2018-02-11T10:28:42.318Z,91.30
2018-02-11T10:31:10.021Z,91.10
2018-02-11T10:33:37.571Z,90.70
2018-02-11T10:36:05.084Z,91.10
2018-02-11T10:38:32.615Z,91.00
2018-02-11T10:41:00.133Z,91.10
2018-02-11T10:43:27.667Z,91.00
2018-02-11T10:45:55.180Z,90.50
2018-02-11T10:48:22.820Z,90.80
2018-02-11T10:50:51.119Z,90.50
2018-02-11T10:53:18.703Z,90.40
2018-02-11T10:55:46.221Z,90.70
2018-02-11T10:58:14.537Z,90.70
2018-02-11T11:00:42.037Z,90.70
2018-02-11T11:03:09.573Z,90.50
2018-02-11T11:05:37.096Z,90.80
2018-02-11T11:08:04.652Z,90.40
2018-02-11T11:10:32.164Z,90.90
2018-02-11T11:13:00.545Z,89.90
2018-02-11T11:15:28.820Z,89.60
2018-02-11T11:17:56.439Z,89.40
2018-02-11T11:20:23.999Z,87.40
2018-02-11T11:22:51.563Z,85.30
2018-02-11T11:25:19.840Z,83.80
2018-02-11T11:27:47.406Z,83.70
2018-02-11T11:30:14.944Z,82.50
2018-02-11T11:32:42.456Z,80.20
2018-02-11T11:35:10.019Z,78.70
2018-02-11T11:37:37.555Z,78.70
2018-02-11T11:40:05.890Z,77.70
2018-02-11T11:42:33.403Z,77.60
2018-02-11T11:45:00.955Z,77.40
2018-02-11T11:47:29.219Z,78.20
2018-02-11T11:49:56.760Z,78.20
2018-02-11T11:52:25.075Z,80.10
2018-02-11T11:54:52.598Z,80.10
2018-02-11T11:57:20.148Z,80.60
2018-02-11T11:59:48.424Z,80.80
2018-02-11T12:02:16.703Z,80.80
2018-02-11T12:04:44.259Z,80.80
2018-02-11T12:07:11.820Z,80.50
2018-02-11T12:09:39.326Z,78.80
2018-02-11T12:12:07.660Z,77.60
2018-02-11T12:14:35.209Z,77.60
2018-02-11T12:17:02.776Z,76.80
2018-02-11T12:19:31.104Z,75.10
2018-02-11T12:21:58.629Z,75.10
2018-02-11T12:24:26.189Z,75.30
2018-02-11T12:26:53.701Z,75.50
2018-02-11T12:29:21.236Z,75.70
2018-02-11T12:31:48.746Z,75.80
2018-02-11T12:34:16.299Z,76.10
2018-02-11T12:36:44.574Z,77.00
2018-02-11T12:39:12.110Z,76.90
2018-02-11T12:41:39.658Z,77.50
2018-02-11T12:44:07.159Z,77.60
2018-02-11T12:46:34.696Z,77.90
2018-02-11T12:49:02.223Z,78.50
2018-02-11T12:51:29.784Z,78.90
2018-02-11T12:53:57.291Z,79.80
2018-02-11T12:56:25.567Z,79.10
2018-02-11T12:58:53.109Z,79.10
2018-02-11T13:01:20.650Z,78.40
2018-02-11T13:03:48.184Z,78.70
2018-02-11T13:06:16.467Z,78.80
2018-02-11T13:08:44.004Z,78.30
2018-02-11T13:11:11.520Z,78.40
2018-02-11T13:13:39.832Z,79.70
2018-02-11T13:16:07.379Z,79.70
2018-02-11T13:18:34.887Z,80.60
2018-02-11T13:21:03.203Z,80.70
2018-02-11T13:23:30.715Z,80.70
2018-02-11T13:25:59.019Z,80.90
2018-02-11T13:28:27.311Z,80.00
2018-02-11T13:30:55.607Z,80.20
2018-02-11T13:33:23.131Z,80.20
2018-02-11T13:35:50.731Z,80.70
2018-02-11T13:38:19.036Z,82.00
2018-02-11T13:40:46.578Z,82.00
2018-02-11T13:43:14.115Z,83.10
2018-02-11T13:45:41.679Z,83.70
2018-02-11T13:48:09.203Z,84.20
2018-02-11T13:50:36.739Z,85.00
2018-02-11T13:53:04.259Z,85.80
2018-02-11T13:55:32.623Z,86.40
2018-02-11T13:58:00.154Z,86.40
2018-02-11T14:00:27.719Z,86.10
2018-02-11T14:02:55.233Z,86.50
2018-02-11T14:05:22.785Z,86.80
2018-02-11T14:07:50.296Z,86.80
2018-02-11T14:10:17.839Z,87.00
2018-02-11T14:12:45.357Z,86.60
2018-02-11T14:15:12.988Z,86.40
2018-02-11T14:17:40.528Z,86.20
2018-02-11T14:20:08.145Z,85.60
2018-02-11T14:22:35.725Z,85.60
2018-02-11T14:25:03.279Z,85.50
2018-02-11T14:27:30.789Z,84.30
2018-02-11T14:29:58.354Z,84.50
2018-02-11T14:32:26.261Z,83.20
2018-02-11T14:34:53.847Z,82.40
2018-02-11T14:37:21.485Z,81.90
2018-02-11T14:39:49.063Z,82.40
2018-02-11T14:42:17.405Z,82.80
2018-02-11T14:44:44.989Z,82.80
2018-02-11T14:47:12.650Z,82.90
2018-02-11T14:49:40.203Z,83.30
2018-02-11T14:52:07.718Z,83.90
2018-02-11T14:54:35.475Z,83.30
2018-02-11T14:57:03.042Z,83.90
2018-02-11T14:59:31.408Z,83.60
2018-02-11T15:01:58.994Z,82.90
2018-02-11T15:04:26.563Z,83.10
2018-02-11T15:06:54.075Z,83.20
2018-02-11T15:09:21.601Z,83.80
2018-02-11T15:11:49.194Z,82.40
2018-02-11T15:14:16.739Z,82.90
2018-02-11T15:16:44.284Z,83.10
2018-02-11T15:19:12.567Z,82.30
2018-02-11T15:21:40.310Z,82.30
2018-02-11T15:24:07.931Z,81.80
2018-02-11T15:26:35.585Z,82.20
2018-02-11T15:29:03.107Z,81.70
2018-02-11T15:31:30.694Z,82.10
2018-02-11T15:33:58.199Z,82.40
2018-02-11T15:36:25.803Z,81.50
2018-02-11T15:38:53.327Z,82.00
2018-02-11T15:41:20.869Z,83.00
2018-02-11T15:43:48.411Z,82.90
2018-02-11T15:46:15.982Z,85.70
2018-02-11T15:48:43.500Z,87.70
2018-02-11T15:51:11.045Z,90.00
2018-02-11T15:53:38.579Z,90.20
2018-02-11T15:56:06.132Z,90.50
2018-02-11T15:58:33.655Z,90.80
2018-02-11T16:01:01.196Z,90.70
2018-02-11T16:03:28.725Z,90.50
2018-02-11T16:05:56.258Z,90.60
2018-02-11T16:08:24.539Z,90.50
2018-02-11T16:10:52.863Z,90.10
2018-02-11T16:13:20.391Z,90.20
2018-02-11T16:15:47.987Z,90.80
2018-02-11T16:18:15.561Z,91.30
2018-02-11T16:20:43.834Z,91.90
2018-02-11T16:23:12.169Z,92.30
2018-02-11T16:25:39.722Z,92.30
2018-02-11T16:28:07.263Z,93.20
2018-02-11T16:30:34.785Z,93.30
2018-02-11T16:33:02.331Z,93.90
2018-02-11T16:35:29.855Z,94.20
2018-02-11T16:37:57.387Z,94.30
2018-02-11T16:40:24.897Z,94.40
2018-02-11T16:42:52.443Z,94.70
2018-02-11T16:45:19.967Z,94.80
2018-02-11T16:47:47.527Z,95.30
2018-02-11T16:50:15.062Z,95.60
2018-02-11T16:52:42.697Z,96.00
2018-02-11T16:55:10.998Z,96.20
2018-02-11T16:57:38.708Z,96.20
2018-02-11T17:00:06.282Z,96.30
2018-02-11T17:02:33.828Z,95.80
2018-02-11T17:05:01.357Z,95.80
2018-02-11T17:07:28.911Z,95.90
2018-02-11T17:09:56.427Z,95.60
2018-02-11T17:12:23.991Z,95.90
2018-02-11T17:14:51.553Z,96.40
2018-02-11T17:17:19.043Z,96.40
2018-02-11T17:19:47.353Z,96.70
2018-02-11T17:22:14.908Z,96.70
2018-02-11T17:24:42.439Z,97.10
2018-02-11T17:27:10.046Z,97.40
2018-02-11T17:29:37.563Z,97.60
2018-02-11T17:32:05.126Z,98.00
2018-02-11T17:34:32.647Z,98.10
2018-02-11T17:37:00.223Z,98.60
2018-02-11T17:39:27.739Z,98.80
2018-02-11T17:41:55.346Z,98.90
2018-02-11T17:44:22.962Z,99.00
2018-02-11T17:46:51.342Z,99.10
2018-02-11T17:49:18.947Z,99.10
2018-02-11T17:51:46.595Z,99.10
2018-02-11T17:54:14.872Z,98.90
2018-02-11T17:56:42.442Z,98.90
2018-02-11T17:59:09.951Z,98.50
2018-02-11T18:01:37.460Z,97.90
2018-02-11T18:04:05.007Z,97.50
2018-02-11T18:06:32.531Z,97.40
2018-02-11T18:09:00.092Z,97.30
2018-02-11T18:11:27.621Z,97.40
2018-02-11T18:13:55.194Z,97.40
2018-02-11T18:16:22.712Z,97.20
2018-02-11T18:18:50.260Z,96.80
2018-02-11T18:21:17.821Z,96.40
2018-02-11T18:23:45.330Z,96.20
2018-02-11T18:26:12.874Z,96.10
2018-02-11T18:28:40.388Z,95.80
2018-02-11T18:31:08.707Z,95.00
2018-02-11T18:33:36.243Z,94.90
2018-02-11T18:36:04.580Z,94.70
2018-02-11T18:38:32.112Z,94.40
2018-02-11T18:40:59.671Z,93.80
2018-02-11T18:43:29.828Z,93.60
2018-02-11T18:45:58.547Z,93.00
2018-02-11T18:48:26.069Z,92.70
2018-02-11T18:50:59.319Z,94.10
2018-02-11T18:53:26.829Z,94.90
2018-02-11T18:55:54.827Z,95.10
2018-02-11T18:58:22.338Z,95.80
2018-02-11T19:00:49.915Z,96.10
2018-02-11T19:03:18.188Z,96.40
2018-02-11T19:05:46.559Z,96.60
2018-02-11T19:08:14.068Z,96.60
2018-02-11T19:10:41.657Z,96.80
2018-02-11T19:13:09.195Z,97.40
2018-02-11T19:15:37.515Z,98.10
2018-02-11T19:18:05.945Z,98.10
2018-02-11T19:20:33.499Z,98.30
2018-02-11T19:23:01.050Z,98.50
2018-02-11T19:25:28.570Z,99.10
2018-02-11T19:27:56.167Z,99.60
2018-02-11T19:30:23.690Z,99.90
2018-02-11T19:32:51.270Z,99.90
2018-02-11T19:35:18.888Z,99.90
2018-02-11T19:37:47.198Z,99.90
2018-02-11T19:40:14.988Z,99.90
2018-02-11T19:42:42.559Z,99.50
2018-02-11T19:45:10.083Z,99.60
2018-02-11T19:47:37.628Z,99.70
2018-02-11T19:50:05.143Z,99.70
2018-02-11T19:52:33.453Z,99.80
2018-02-11T19:55:01.113Z,99.80
2018-02-11T19:57:29.517Z,99.90
2018-02-11T19:59:57.107Z,99.90
2018-02-11T20:02:24.672Z,99.80
2018-02-11T20:04:52.284Z,99.30
2018-02-11T20:07:20.038Z,99.00
2018-02-11T20:09:47.575Z,98.60
2018-02-11T20:12:16.468Z,97.50
2018-02-11T20:14:44.517Z,97.50
2018-02-11T20:17:12.204Z,97.30
2018-02-11T20:19:39.823Z,97.20
2018-02-11T20:22:07.459Z,97.30
2018-02-11T20:24:35.138Z,97.60
2018-02-11T20:27:04.127Z,97.70
2018-02-11T20:29:31.761Z,97.50
2018-02-11T20:31:59.417Z,97.60
2018-02-11T20:34:27.075Z,97.60
2018-02-11T20:36:55.503Z,97.90
2018-02-11T20:39:23.859Z,97.70
2018-02-11T20:41:51.376Z,97.50
2018-02-11T20:44:20.061Z,97.40
2018-02-11T20:46:47.911Z,97.30
2018-02-11T20:49:15.643Z,97.10
2018-02-11T20:51:43.159Z,97.10
2018-02-11T20:54:10.720Z,97.10
2018-02-11T20:56:38.580Z,97.10
2018-02-11T20:59:06.128Z,96.80
2018-02-11T21:01:33.754Z,96.90
2018-02-11T21:04:01.403Z,97.10
2018-02-11T21:06:29.215Z,97.40
2018-02-11T21:08:57.657Z,97.40
2018-02-11T21:11:25.245Z,97.40
2018-02-11T21:13:52.884Z,97.50
2018-02-11T21:16:20.446Z,97.80
2018-02-11T21:18:48.763Z,98.30
2018-02-11T21:21:16.483Z,98.30
2018-02-11T21:23:44.039Z,98.40
2018-02-11T21:26:11.875Z,98.40
2018-02-11T21:28:39.475Z,98.50
2018-02-11T21:31:07.043Z,98.50
2018-02-11T21:33:34.584Z,98.70
2018-02-11T21:36:02.907Z,99.20
2018-02-11T21:38:30.460Z,99.10
2018-02-11T21:40:57.978Z,99.40
2018-02-11T21:43:25.513Z,99.60
2018-02-11T21:45:53.020Z,99.80
2018-02-11T21:48:20.572Z,99.70
2018-02-11T21:50:48.090Z,99.90
2018-02-11T21:53:16.419Z,99.90
2018-02-11T21:55:43.998Z,99.90
2018-02-11T21:58:11.503Z,99.60
2018-02-11T22:00:39.046Z,99.30
2018-02-11T22:03:06.559Z,99.20
2018-02-11T22:05:34.110Z,99.10
2018-02-11T22:08:01.637Z,98.90
2018-02-11T22:10:29.191Z,98.80
2018-02-11T22:12:56.706Z,98.50
2018-02-11T22:15:24.248Z,98.40
2018-02-11T22:17:51.767Z,97.90
2018-02-11T22:20:19.303Z,97.50
2018-02-11T22:22:46.863Z,97.50
2018-02-11T22:25:14.404Z,96.80
2018-02-11T22:27:43.581Z,96.70
2018-02-11T22:30:11.166Z,96.60
2018-02-11T22:32:42.616Z,96.70
2018-02-11T22:35:10.195Z,96.60
2018-02-11T22:37:37.707Z,96.60
2018-02-11T22:40:05.235Z,96.80
2018-02-11T22:42:32.750Z,96.70
2018-02-11T22:45:01.060Z,97.00
2018-02-11T22:47:28.563Z,96.80
2018-02-11T22:49:56.127Z,96.80
2018-02-11T22:52:23.858Z,96.70
2018-02-11T22:54:52.158Z,96.80
2018-02-11T22:57:20.504Z,96.80
2018-02-11T22:59:48.017Z,96.80
2018-02-11T23:02:16.327Z,96.60
2018-02-11T23:04:43.841Z,96.60
2018-02-11T23:07:11.379Z,96.40
2018-02-11T23:09:38.924Z,96.40
2018-02-11T23:12:07.236Z,96.50
2018-02-11T23:14:34.766Z,96.50
2018-02-11T23:17:02.343Z,96.60
2018-02-11T23:19:41.655Z,96.60
2018-02-11T23:22:09.194Z,96.30
2018-02-11T23:24:36.880Z,96.40
2018-02-11T23:27:04.463Z,96.30
2018-02-11T23:29:31.979Z,95.90
2018-02-11T23:31:59.536Z,95.50
2018-02-11T23:34:27.179Z,95.50
2018-02-11T23:36:54.747Z,95.40
2018-02-11T23:39:22.288Z,95.40
2018-02-11T23:41:49.831Z,95.50
2018-02-11T23:44:17.347Z,95.60
2018-02-11T23:46:45.694Z,95.80
2018-02-11T23:49:13.245Z,95.80
2018-02-11T23:51:40.746Z,96.00
2018-02-11T23:54:08.256Z,96.10
2018-02-11T23:56:35.799Z,96.00
2018-02-11T23:59:04.121Z,95.90
